createdAt,value
2023-03-16T00:00:19.941Z,98043.06
2023-03-16T00:02:47.482Z,98050.47
2023-03-16T00:05:15.442Z,98043.44
2023-03-16T00:07:44.559Z,98037.13
2023-03-16T00:10:13.125Z,98039.81
2023-03-16T00:12:43.551Z,98037.97
2023-03-16T00:15:11.908Z,98039.81
2023-03-16T00:17:39.841Z,98043.91
2023-03-16T00:20:08.318Z,98043.06
2023-03-16T00:22:35.750Z,98048.56
2023-03-16T00:25:05.627Z,98047.31
2023-03-16T00:27:33.150Z,98043.00
2023-03-16T00:30:03.591Z,98049.88
2023-03-16T00:32:34.727Z,98047.06
2023-03-16T00:35:03.367Z,98038.09
2023-03-16T00:37:32.775Z,98047.06
2023-03-16T00:40:00.959Z,98047.53
2023-03-16T00:42:31.453Z,98059.16
2023-03-16T00:45:00.404Z,98065.06
2023-03-16T00:47:30.295Z,98057.91
2023-03-16T00:49:58.580Z,98052.16
2023-03-16T00:52:27.630Z,98058.22
2023-03-16T00:54:55.573Z,98053.16
2023-03-16T00:57:25.226Z,98051.91
2023-03-16T00:59:54.192Z,98048.13
2023-03-16T01:02:24.480Z,98044.75
2023-03-16T01:04:54.393Z,98047.69
2023-03-16T01:07:22.211Z,98039.13
2023-03-16T01:09:49.706Z,98055.97
2023-03-16T01:12:19.806Z,98047.97
2023-03-16T01:14:47.895Z,98044.88
2023-03-16T01:17:17.641Z,98052.25
2023-03-16T01:19:46.372Z,98046.19
2023-03-16T01:22:15.335Z,98052.91
2023-03-16T01:24:45.284Z,98053.16
2023-03-16T01:27:13.538Z,98048.81
2023-03-16T01:29:43.647Z,98053.00
2023-03-16T01:32:12.202Z,98049.38
2023-03-16T01:34:41.530Z,98046.84
2023-03-16T01:37:09.628Z,98050.50
2023-03-16T01:39:46.282Z,98040.22
2023-03-16T01:42:15.054Z,98044.72
2023-03-16T01:44:55.109Z,98037.94
2023-03-16T01:47:24.761Z,98036.09
2023-03-16T01:49:57.020Z,98034.28
2023-03-16T01:52:33.323Z,98034.22
2023-03-16T01:55:04.727Z,98035.06
2023-03-16T01:57:37.074Z,98031.84
2023-03-16T02:00:18.531Z,98019.66
2023-03-16T02:03:07.240Z,98023.72
2023-03-16T02:05:52.700Z,98025.03
2023-03-16T02:08:23.016Z,98021.81
2023-03-16T02:10:54.661Z,98016.41
2023-03-16T02:13:24.986Z,98015.44
2023-03-16T02:15:53.572Z,98022.03
2023-03-16T02:18:24.582Z,98023.44
2023-03-16T02:21:02.511Z,98025.78
2023-03-16T02:23:32.606Z,98028.31
2023-03-16T02:26:07.690Z,98025.50
2023-03-16T02:28:48.157Z,98029.84
2023-03-16T02:31:17.495Z,98017.78
2023-03-16T02:33:47.537Z,98012.16
2023-03-16T02:36:15.237Z,98011.06
2023-03-16T02:38:42.637Z,98009.97
2023-03-16T02:41:12.840Z,98010.84
2023-03-16T02:43:43.810Z,98008.88
2023-03-16T02:46:23.299Z,98004.97
2023-03-16T02:48:57.966Z,97998.94
2023-03-16T02:51:25.533Z,97995.16
2023-03-16T02:53:54.677Z,97994.03
2023-03-16T02:56:22.823Z,98002.88
2023-03-16T02:58:51.099Z,98002.47
2023-03-16T03:01:21.744Z,97996.28
2023-03-16T03:03:49.608Z,97993.19
2023-03-16T03:06:17.025Z,97997.00
2023-03-16T03:08:44.555Z,98001.91
2023-03-16T03:11:12.772Z,98001.63
2023-03-16T03:13:43.669Z,97996.28
2023-03-16T03:16:15.440Z,97989.13
2023-03-16T03:18:44.371Z,97988.88
2023-03-16T03:21:11.871Z,97993.19
2023-03-16T03:23:40.913Z,97990.69
2023-03-16T03:26:08.714Z,97986.22
2023-03-16T03:28:36.194Z,97989.41
2023-03-16T03:31:03.677Z,97980.69
2023-03-16T03:33:33.698Z,97973.00
2023-03-16T03:36:02.611Z,97966.66
2023-03-16T03:38:35.786Z,97979.19
2023-03-16T03:41:04.555Z,97973.28
2023-03-16T03:43:34.754Z,97973.13
2023-03-16T03:46:04.143Z,97970.44
2023-03-16T03:48:34.630Z,97964.56
2023-03-16T03:51:05.514Z,97965.81
2023-03-16T03:53:58.395Z,97965.97
2023-03-16T03:56:40.494Z,97959.22
2023-03-16T03:59:12.409Z,97965.41
2023-03-16T04:01:58.831Z,97962.59
2023-03-16T04:04:33.845Z,97961.88
2023-03-16T04:07:02.776Z,97951.06
2023-03-16T04:09:33.845Z,97951.50
2023-03-16T04:12:02.230Z,97952.78
2023-03-16T04:14:30.082Z,97953.03
2023-03-16T04:16:57.840Z,97950.38
2023-03-16T04:19:25.461Z,97943.63
2023-03-16T04:21:55.317Z,97942.78
2023-03-16T04:24:24.625Z,97943.75
2023-03-16T04:26:54.277Z,97936.59
2023-03-16T04:29:21.961Z,97944.59
2023-03-16T04:31:49.643Z,97943.91
2023-03-16T04:34:17.231Z,97930.56
2023-03-16T04:36:44.895Z,97937.72
2023-03-16T04:39:12.431Z,97933.09
2023-03-16T04:41:41.190Z,97927.91
2023-03-16T04:44:14.797Z,97931.41
2023-03-16T04:46:42.603Z,97919.06
2023-03-16T04:49:11.499Z,97927.91
2023-03-16T04:51:42.543Z,97926.94
2023-03-16T04:54:14.058Z,97927.75
2023-03-16T04:56:45.196Z,97921.44
2023-03-16T04:59:31.932Z,97924.69
2023-03-16T05:02:14.567Z,97926.63
2023-03-16T05:04:42.408Z,97922.00
2023-03-16T05:07:12.210Z,97926.50
2023-03-16T05:09:43.182Z,97932.41
2023-03-16T05:12:12.250Z,97925.66
2023-03-16T05:14:40.374Z,97925.78
2023-03-16T05:17:19.561Z,97927.59
2023-03-16T05:19:48.149Z,97930.88
2023-03-16T05:22:16.997Z,97918.91
2023-03-16T05:25:04.618Z,97924.97
2023-03-16T05:27:34.220Z,97921.56
2023-03-16T05:30:02.772Z,97919.47
2023-03-16T05:32:32.025Z,97923.25
2023-03-16T05:35:10.311Z,97926.91
2023-03-16T05:37:38.094Z,97925.91
2023-03-16T05:40:16.986Z,97931.00
2023-03-16T05:42:54.085Z,97926.06
2023-03-16T05:45:22.029Z,97922.41
2023-03-16T05:47:59.797Z,97922.69
2023-03-16T05:50:28.853Z,97923.69
2023-03-16T05:52:56.456Z,97930.69
2023-03-16T05:55:25.167Z,97923.69
2023-03-16T05:57:58.942Z,97930.41
2023-03-16T06:00:27.740Z,97929.44
2023-03-16T06:03:07.124Z,97924.22
2023-03-16T06:05:36.995Z,97920.41
2023-03-16T06:08:05.608Z,97937.44
2023-03-16T06:10:33.592Z,97929.03
2023-03-16T06:13:02.827Z,97926.59
2023-03-16T06:15:30.691Z,97925.75
2023-03-16T06:18:00.896Z,97929.09
2023-03-16T06:20:28.767Z,97916.88
2023-03-16T06:22:57.068Z,97923.47
2023-03-16T06:25:24.464Z,97926.56
2023-03-16T06:27:52.482Z,97930.63
2023-03-16T06:30:21.992Z,97932.19
2023-03-16T06:32:49.528Z,97935.53
2023-03-16T06:35:17.204Z,97932.44
2023-03-16T06:37:52.345Z,97926.94
2023-03-16T06:40:41.449Z,97921.16
2023-03-16T06:43:09.404Z,97921.16
2023-03-16T06:45:38.362Z,97920.31
2023-03-16T06:48:07.180Z,97931.41
2023-03-16T06:50:34.903Z,97919.69
2023-03-16T06:53:02.525Z,97922.38
2023-03-16T06:55:32.030Z,97915.13
2023-03-16T06:58:01.405Z,97922.84
2023-03-16T07:00:30.822Z,97917.75
2023-03-16T07:03:00.579Z,97917.69
2023-03-16T07:05:29.889Z,97917.16
2023-03-16T07:07:58.558Z,97919.78
2023-03-16T07:10:26.245Z,97919.19
2023-03-16T07:12:55.212Z,97919.03
2023-03-16T07:15:25.651Z,97920.88
2023-03-16T07:17:55.503Z,97912.22
2023-03-16T07:20:24.563Z,97921.84
2023-03-16T07:22:52.426Z,97923.38
2023-03-16T07:25:20.491Z,97917.72
2023-03-16T07:27:52.605Z,97916.38
2023-03-16T07:30:25.619Z,97917.19
2023-03-16T07:32:53.662Z,97928.09
2023-03-16T07:35:24.941Z,97932.00
2023-03-16T07:37:52.306Z,97934.13
2023-03-16T07:40:21.070Z,97932.13
2023-03-16T07:42:49.082Z,97924.41
2023-03-16T07:45:26.646Z,97921.94
2023-03-16T07:47:54.960Z,97925.50
2023-03-16T07:50:35.558Z,97936.94
2023-03-16T07:53:02.974Z,97931.66
2023-03-16T07:55:31.677Z,97928.19
2023-03-16T07:57:59.589Z,97921.41
2023-03-16T08:00:33.479Z,97928.47
2023-03-16T08:03:02.091Z,97926.84
2023-03-16T08:05:34.445Z,97929.63
2023-03-16T08:08:09.621Z,97924.94
2023-03-16T08:10:40.198Z,97917.22
2023-03-16T08:13:12.337Z,97916.22
2023-03-16T08:15:46.621Z,97922.75
2023-03-16T08:18:23.836Z,97922.63
2023-03-16T08:20:52.319Z,97923.59
2023-03-16T08:23:22.308Z,97919.38
2023-03-16T08:25:52.243Z,97927.94
2023-03-16T08:28:21.741Z,97922.19
2023-03-16T08:30:51.432Z,97927.91
2023-03-16T08:33:31.789Z,97924.53
2023-03-16T08:35:59.819Z,97928.69
2023-03-16T08:38:28.740Z,97926.97
2023-03-16T08:41:02.050Z,97924.41
2023-03-16T08:43:29.851Z,97927.28
2023-03-16T08:45:59.046Z,97924.19
2023-03-16T08:48:36.348Z,97931.81
2023-03-16T08:51:05.807Z,97921.31
2023-03-16T08:53:35.199Z,97923.00
2023-03-16T08:56:04.881Z,97921.53
2023-03-16T08:58:34.153Z,97927.59
2023-03-16T09:01:02.495Z,97923.22
2023-03-16T09:03:30.898Z,97919.47
2023-03-16T09:06:02.324Z,97923.19
2023-03-16T09:08:30.450Z,97914.09
2023-03-16T09:11:03.871Z,97915.22
2023-03-16T09:13:31.851Z,97910.72
2023-03-16T09:15:59.853Z,97907.25
2023-03-16T09:18:27.697Z,97898.69
2023-03-16T09:21:00.090Z,97887.13
2023-03-16T09:23:27.956Z,97897.94
2023-03-16T09:25:59.265Z,97901.13
2023-03-16T09:28:29.599Z,97899.16
2023-03-16T09:30:57.946Z,97895.63
2023-03-16T09:33:26.858Z,97895.31
2023-03-16T09:35:57.485Z,97897.13
2023-03-16T09:38:28.792Z,97895.19
2023-03-16T09:41:00.628Z,97884.53
2023-03-16T09:43:43.528Z,97879.13
2023-03-16T09:46:15.534Z,97889.59
2023-03-16T09:48:43.436Z,97884.66
2023-03-16T09:51:20.353Z,97880.50
2023-03-16T09:53:53.056Z,97880.72
2023-03-16T09:56:30.237Z,97886.66
2023-03-16T09:58:59.934Z,97879.44
2023-03-16T10:01:40.546Z,97880.50
2023-03-16T10:04:24.534Z,97869.19
2023-03-16T10:07:03.545Z,97867.13
2023-03-16T10:09:36.219Z,97855.19
2023-03-16T10:12:07.086Z,97860.63
2023-03-16T10:14:44.576Z,97857.91
2023-03-16T10:17:17.167Z,97851.75
2023-03-16T10:19:49.846Z,97853.91
2023-03-16T10:22:22.087Z,97841.94
2023-03-16T10:25:01.254Z,97839.56
2023-03-16T10:27:31.435Z,97828.84
2023-03-16T10:30:02.450Z,97840.38
2023-03-16T10:32:34.562Z,97848.88
2023-03-16T10:35:07.208Z,97848.84
2023-03-16T10:37:35.811Z,97844.50
2023-03-16T10:40:09.196Z,97845.06
2023-03-16T10:42:37.165Z,97838.91
2023-03-16T10:45:07.053Z,97835.28
2023-03-16T10:47:34.592Z,97843.75
2023-03-16T10:50:18.335Z,97842.13
2023-03-16T10:52:48.106Z,97844.19
2023-03-16T10:55:20.143Z,97845.47
2023-03-16T10:57:51.097Z,97840.03
2023-03-16T11:00:25.311Z,97830.00
2023-03-16T11:02:54.427Z,97829.53
2023-03-16T11:05:31.131Z,97819.13
2023-03-16T11:08:01.734Z,97810.56
2023-03-16T11:10:33.339Z,97817.09
2023-03-16T11:13:06.364Z,97809.25
2023-03-16T11:15:42.288Z,97811.13
2023-03-16T11:18:20.273Z,97806.53
2023-03-16T11:20:48.506Z,97810.31
2023-03-16T11:23:29.930Z,97809.06
2023-03-16T11:26:01.126Z,97809.94
2023-03-16T11:28:36.581Z,97818.00
2023-03-16T11:31:13.191Z,97817.94
2023-03-16T11:33:40.969Z,97813.13
2023-03-16T11:36:32.061Z,97806.66
2023-03-16T11:39:07.389Z,97794.78
2023-03-16T11:41:46.913Z,97778.13
2023-03-16T11:44:21.122Z,97779.41
2023-03-16T11:46:57.035Z,97777.28
2023-03-16T11:49:44.391Z,97783.41
2023-03-16T11:52:17.347Z,97781.72
2023-03-16T11:54:56.396Z,97773.50
2023-03-16T11:57:33.686Z,97770.00
2023-03-16T12:00:21.901Z,97762.44
2023-03-16T12:02:59.711Z,97759.63
2023-03-16T12:05:45.006Z,97762.59
2023-03-16T12:08:40.695Z,97767.84
2023-03-16T12:11:10.119Z,97758.84
2023-03-16T12:13:52.385Z,97753.00
2023-03-16T12:16:33.087Z,97748.38
2023-03-16T12:19:15.716Z,97743.53
2023-03-16T12:21:48.623Z,97738.75
2023-03-16T12:24:20.007Z,97745.66
2023-03-16T12:26:49.623Z,97745.13
2023-03-16T12:29:28.439Z,97742.88
2023-03-16T12:32:03.779Z,97739.75
2023-03-16T12:34:40.605Z,97731.41
2023-03-16T12:37:30.902Z,97721.72
2023-03-16T12:40:20.923Z,97722.56
2023-03-16T12:43:05.488Z,97709.59
2023-03-16T12:45:40.635Z,97714.81
2023-03-16T12:48:19.250Z,97710.56
2023-03-16T12:50:51.250Z,97712.00
2023-03-16T12:53:27.142Z,97706.81
2023-03-16T12:55:57.256Z,97706.44
2023-03-16T12:58:27.510Z,97708.75
2023-03-16T13:00:58.187Z,97704.22
2023-03-16T13:03:27.731Z,97694.38
2023-03-16T13:05:59.539Z,97701.88
2023-03-16T13:08:30.599Z,97690.84
2023-03-16T13:11:08.243Z,97684.34
2023-03-16T13:13:48.153Z,97690.00
2023-03-16T13:16:25.221Z,97685.41
2023-03-16T13:18:53.189Z,97692.41
2023-03-16T13:21:33.846Z,97681.34
2023-03-16T13:24:14.674Z,97696.72
2023-03-16T13:26:46.296Z,97689.41
2023-03-16T13:29:25.596Z,97683.63
2023-03-16T13:31:54.843Z,97690.16
2023-03-16T13:34:26.851Z,97685.75
2023-03-16T13:36:58.807Z,97695.59
2023-03-16T13:39:28.332Z,97680.59
2023-03-16T13:41:59.614Z,97679.75
2023-03-16T13:44:28.457Z,97684.38
2023-03-16T13:46:56.210Z,97671.69
2023-03-16T13:49:23.993Z,97678.00
2023-03-16T13:51:52.566Z,97681.78
2023-03-16T13:54:24.808Z,97666.25
2023-03-16T13:56:55.443Z,97665.06
2023-03-16T13:59:22.971Z,97656.63
2023-03-16T14:01:57.990Z,97646.03
2023-03-16T14:04:28.626Z,97646.16
2023-03-16T14:06:57.643Z,97642.94
2023-03-16T14:09:29.583Z,97651.66
2023-03-16T14:11:57.767Z,97652.00
2023-03-16T14:14:29.013Z,97650.94
2023-03-16T14:17:02.934Z,97646.41
2023-03-16T14:19:34.386Z,97630.47
2023-03-16T14:22:04.137Z,97637.25
2023-03-16T14:24:35.239Z,97625.38
2023-03-16T14:27:21.782Z,97625.94
2023-03-16T14:29:58.328Z,97624.53
2023-03-16T14:32:30.961Z,97625.13
2023-03-16T14:35:10.992Z,97622.94
2023-03-16T14:37:41.164Z,97618.09
2023-03-16T14:40:22.927Z,97612.69
2023-03-16T14:42:52.098Z,97607.31
2023-03-16T14:45:21.585Z,97609.41
2023-03-16T14:47:50.784Z,97606.31
2023-03-16T14:50:23.785Z,97598.44
2023-03-16T14:52:53.499Z,97597.97
2023-03-16T14:55:23.881Z,97600.78
2023-03-16T14:57:51.588Z,97608.09
2023-03-16T15:00:21.959Z,97599.47
2023-03-16T15:02:57.704Z,97597.00
2023-03-16T15:05:32.024Z,97588.00
2023-03-16T15:08:00.128Z,97587.03
2023-03-16T15:10:31.207Z,97576.97
2023-03-16T15:13:12.793Z,97587.72
2023-03-16T15:15:42.570Z,97587.22
2023-03-16T15:18:10.197Z,97588.81
2023-03-16T15:20:41.422Z,97582.81
2023-03-16T15:23:14.614Z,97587.16
2023-03-16T15:25:44.838Z,97588.00
2023-03-16T15:28:15.995Z,97596.97
2023-03-16T15:30:44.915Z,97591.09
2023-03-16T15:33:13.188Z,97592.84
2023-03-16T15:35:41.609Z,97594.66
2023-03-16T15:38:12.796Z,97590.25
2023-03-16T15:40:44.122Z,97587.78
2023-03-16T15:43:12.537Z,97584.88
2023-03-16T15:45:40.044Z,97585.78
2023-03-16T15:48:09.784Z,97598.69
2023-03-16T15:50:40.966Z,97587.13
2023-03-16T15:53:29.225Z,97577.06
2023-03-16T15:56:03.089Z,97583.59
2023-03-16T15:58:32.516Z,97577.53
2023-03-16T16:01:01.829Z,97585.06
2023-03-16T16:03:29.459Z,97578.59
2023-03-16T16:05:57.478Z,97577.16
2023-03-16T16:08:24.964Z,97592.25
2023-03-16T16:10:53.503Z,97577.97
2023-03-16T16:13:26.683Z,97591.13
2023-03-16T16:16:09.294Z,97591.34
2023-03-16T16:18:37.411Z,97600.78
2023-03-16T16:21:06.622Z,97602.34
2023-03-16T16:23:34.618Z,97595.03
2023-03-16T16:26:04.560Z,97596.06
2023-03-16T16:28:34.944Z,97589.00
2023-03-16T16:31:04.919Z,97596.78
2023-03-16T16:33:34.292Z,97597.47
2023-03-16T16:36:04.194Z,97599.59
2023-03-16T16:38:38.331Z,97597.94
2023-03-16T16:41:09.013Z,97594.47
2023-03-16T16:43:41.184Z,97592.97
2023-03-16T16:46:15.391Z,97600.78
2023-03-16T16:48:46.218Z,97601.81
2023-03-16T16:51:18.457Z,97597.47
2023-03-16T16:53:47.704Z,97596.84
2023-03-16T16:56:17.811Z,97600.84
2023-03-16T16:58:46.775Z,97598.56
2023-03-16T17:01:20.923Z,97596.50
2023-03-16T17:03:48.395Z,97595.06
2023-03-16T17:06:17.944Z,97582.53
2023-03-16T17:08:46.319Z,97589.81
2023-03-16T17:11:19.354Z,97585.03
2023-03-16T17:13:49.663Z,97575.44
2023-03-16T17:16:18.627Z,97576.69
2023-03-16T17:18:47.622Z,97576.69
2023-03-16T17:21:17.385Z,97582.72
2023-03-16T17:23:44.754Z,97587.09
2023-03-16T17:26:16.081Z,97592.50
2023-03-16T17:28:47.118Z,97582.88
2023-03-16T17:31:21.013Z,97585.38
2023-03-16T17:33:50.023Z,97586.44
2023-03-16T17:36:19.929Z,97597.66
2023-03-16T17:38:47.801Z,97592.22
2023-03-16T17:41:23.028Z,97596.56
2023-03-16T17:43:51.745Z,97591.34
2023-03-16T17:46:23.903Z,97591.94
2023-03-16T17:48:52.981Z,97588.75
2023-03-16T17:51:21.772Z,97587.88
2023-03-16T17:53:49.294Z,97590.78
2023-03-16T17:56:19.870Z,97588.03
2023-03-16T17:58:49.146Z,97583.78
2023-03-16T18:01:17.114Z,97581.69
2023-03-16T18:03:46.175Z,97579.41
2023-03-16T18:06:18.970Z,97571.47
2023-03-16T18:08:48.440Z,97572.72
2023-03-16T18:11:19.477Z,97573.53
2023-03-16T18:13:48.748Z,97572.88
2023-03-16T18:16:19.943Z,97573.28
2023-03-16T18:18:49.554Z,97577.41
2023-03-16T18:21:21.889Z,97575.47
2023-03-16T18:23:49.605Z,97582.94
2023-03-16T18:26:18.911Z,97586.91
2023-03-16T18:28:48.490Z,97588.16
2023-03-16T18:31:22.227Z,97586.03
2023-03-16T18:33:53.801Z,97584.72
2023-03-16T18:36:32.024Z,97575.53
2023-03-16T18:39:02.418Z,97591.53
2023-03-16T18:41:33.612Z,97582.13
2023-03-16T18:44:06.089Z,97582.09
2023-03-16T18:46:35.484Z,97584.41
2023-03-16T18:49:13.290Z,97591.22
2023-03-16T18:51:42.582Z,97590.84
2023-03-16T18:54:20.641Z,97582.66
2023-03-16T18:56:48.462Z,97581.41
2023-03-16T18:59:16.752Z,97576.59
2023-03-16T19:01:45.542Z,97587.75
2023-03-16T19:04:19.826Z,97579.88
2023-03-16T19:06:47.743Z,97576.84
2023-03-16T19:09:19.781Z,97579.34
2023-03-16T19:11:47.461Z,97578.06
2023-03-16T19:14:17.420Z,97568.69
2023-03-16T19:16:45.507Z,97567.41
2023-03-16T19:19:14.888Z,97564.19
2023-03-16T19:21:43.786Z,97571.66
2023-03-16T19:24:19.879Z,97578.50
2023-03-16T19:26:47.552Z,97560.59
2023-03-16T19:29:15.898Z,97570.38
2023-03-16T19:31:43.474Z,97573.19
2023-03-16T19:34:16.228Z,97566.00
2023-03-16T19:36:45.178Z,97569.84
2023-03-16T19:39:13.265Z,97558.59
2023-03-16T19:41:41.080Z,97560.84
2023-03-16T19:44:14.854Z,97562.03
2023-03-16T19:46:43.041Z,97551.25
2023-03-16T19:49:15.564Z,97559.91
2023-03-16T19:51:43.091Z,97545.59
2023-03-16T19:54:21.222Z,97558.63
2023-03-16T19:56:48.974Z,97546.81
2023-03-16T19:59:16.781Z,97548.50
2023-03-16T20:01:44.893Z,97553.31
2023-03-16T20:04:15.441Z,97553.50
2023-03-16T20:06:42.826Z,97547.91
2023-03-16T20:09:10.362Z,97545.00
2023-03-16T20:11:39.316Z,97551.91
2023-03-16T20:14:16.489Z,97538.41
2023-03-16T20:16:44.843Z,97555.25
2023-03-16T20:19:13.670Z,97545.66
2023-03-16T20:21:41.589Z,97547.09
2023-03-16T20:24:15.234Z,97540.66
2023-03-16T20:26:45.618Z,97548.28
2023-03-16T20:29:21.263Z,97543.03
2023-03-16T20:31:48.915Z,97536.66
2023-03-16T20:34:22.472Z,97532.59
2023-03-16T20:36:50.471Z,97540.44
2023-03-16T20:39:17.934Z,97532.06
2023-03-16T20:41:46.896Z,97537.38
2023-03-16T20:44:15.548Z,97536.75
2023-03-16T20:46:44.772Z,97535.00
2023-03-16T20:49:29.252Z,97530.34
2023-03-16T20:51:56.790Z,97541.81
2023-03-16T20:54:24.680Z,97539.50
2023-03-16T20:56:53.638Z,97531.75
2023-03-16T20:59:24.036Z,97536.50
2023-03-16T21:01:54.592Z,97535.84
2023-03-16T21:04:25.557Z,97533.50
2023-03-16T21:06:53.628Z,97531.66
2023-03-16T21:09:22.180Z,97530.44
2023-03-16T21:11:49.860Z,97528.31
2023-03-16T21:14:22.025Z,97523.94
2023-03-16T21:16:49.885Z,97533.97
2023-03-16T21:19:19.746Z,97538.19
2023-03-16T21:21:47.172Z,97533.63
2023-03-16T21:24:14.629Z,97531.50
2023-03-16T21:26:43.901Z,97528.97
2023-03-16T21:29:15.747Z,97528.72
2023-03-16T21:31:44.694Z,97529.28
2023-03-16T21:34:18.346Z,97526.09
2023-03-16T21:36:45.838Z,97529.00
2023-03-16T21:39:18.560Z,97524.19
2023-03-16T21:41:47.526Z,97514.03
2023-03-16T21:44:14.992Z,97515.53
2023-03-16T21:46:44.832Z,97510.75
2023-03-16T21:49:12.904Z,97514.59
2023-03-16T21:51:42.982Z,97505.47
2023-03-16T21:54:13.367Z,97509.59
2023-03-16T21:56:41.885Z,97503.97
2023-03-16T21:59:09.343Z,97496.75
2023-03-16T22:01:50.627Z,97496.94
2023-03-16T22:04:27.328Z,97497.13
2023-03-16T22:06:54.698Z,97497.97
2023-03-16T22:09:29.907Z,97498.97
2023-03-16T22:12:03.952Z,97491.06
2023-03-16T22:14:31.363Z,97486.25
2023-03-16T22:16:58.892Z,97490.81
2023-03-16T22:19:27.828Z,97488.22
2023-03-16T22:21:56.804Z,97485.88
2023-03-16T22:24:26.074Z,97486.53
2023-03-16T22:26:54.008Z,97480.13
2023-03-16T22:29:23.519Z,97477.78
2023-03-16T22:31:53.621Z,97475.94
2023-03-16T22:34:30.386Z,97480.59
2023-03-16T22:36:58.333Z,97476.22
2023-03-16T22:39:25.989Z,97469.25
2023-03-16T22:41:53.513Z,97475.09
2023-03-16T22:44:23.529Z,97473.88
2023-03-16T22:46:50.978Z,97461.59
2023-03-16T22:49:21.008Z,97465.53
2023-03-16T22:51:51.433Z,97466.56
2023-03-16T22:54:21.339Z,97459.47
2023-03-16T22:56:48.914Z,97457.19
2023-03-16T22:59:19.557Z,97460.41
2023-03-16T23:01:49.156Z,97449.47
2023-03-16T23:04:19.991Z,97440.97
2023-03-16T23:06:51.474Z,97445.75
2023-03-16T23:09:20.650Z,97442.84
2023-03-16T23:11:53.508Z,97445.91
2023-03-16T23:14:23.718Z,97437.66
2023-03-16T23:16:54.709Z,97436.16
2023-03-16T23:19:25.200Z,97437.66
2023-03-16T23:21:56.081Z,97430.19
2023-03-16T23:24:24.164Z,97434.47
2023-03-16T23:26:53.752Z,97423.06
2023-03-16T23:29:22.472Z,97441.38
2023-03-16T23:31:50.176Z,97435.22
2023-03-16T23:34:20.754Z,97428.66
2023-03-16T23:36:48.390Z,97430.78
2023-03-16T23:39:18.091Z,97421.13
2023-03-16T23:41:47.717Z,97436.47
2023-03-16T23:44:19.219Z,97434.50
2023-03-16T23:46:47.455Z,97434.25
2023-03-16T23:49:19.541Z,97438.97
2023-03-16T23:51:47.066Z,97438.06
2023-03-16T23:54:19.983Z,97437.00
2023-03-16T23:56:47.592Z,97435.38
2023-03-16T23:59:15.768Z,97431.00
